createdAt,value
2022-08-07T00:00:03.469Z,100196.78
2022-08-07T00:01:44.306Z,100186.41
2022-08-07T00:02:41.438Z,100186.25
2022-08-07T00:03:49.477Z,100185.75
2022-08-07T00:04:51.613Z,100185.16
2022-08-07T00:05:54.406Z,100190.66
2022-08-07T00:06:56.568Z,100190.97
2022-08-07T00:08:04.220Z,100183.41
2022-08-07T00:09:16.368Z,100185.31
2022-08-07T00:10:27.145Z,100185.44
2022-08-07T00:11:33.068Z,100177.28
2022-08-07T00:12:35.525Z,100173.81
2022-08-07T00:13:58.401Z,100181.03
2022-08-07T00:15:01.841Z,100170.84
2022-08-07T00:16:06.819Z,100178.19
2022-08-07T00:17:09.639Z,100180.09
2022-08-07T00:18:19.628Z,100179.66
2022-08-07T00:19:25.899Z,100175.22
2022-08-07T00:20:29.879Z,100182.47
2022-08-07T00:21:57.262Z,100171.31
2022-08-07T00:22:58.833Z,100174.78
2022-08-07T00:24:01.148Z,100169.41
2022-08-07T00:25:05.261Z,100177.44
2022-08-07T00:26:18.680Z,100174.91
2022-08-07T00:27:52.868Z,100174.00
2022-08-07T00:28:56.979Z,100169.25
2022-08-07T00:29:59.278Z,100171.00
2022-08-07T00:31:12.224Z,100177.44
2022-08-07T00:32:15.382Z,100172.72
2022-08-07T00:33:17.838Z,100172.72
2022-08-07T00:34:19.996Z,100174.44
2022-08-07T00:35:24.153Z,100175.22
2022-08-07T00:36:26.312Z,100172.25
2022-08-07T00:37:48.097Z,100182.78
2022-08-07T00:38:50.715Z,100178.38
2022-08-07T00:39:56.563Z,100176.03
2022-08-07T00:40:59.502Z,100176.47
2022-08-07T00:42:05.427Z,100173.97
2022-08-07T00:43:12.855Z,100172.41
2022-08-07T00:44:33.692Z,100181.53
2022-08-07T00:45:35.897Z,100167.69
2022-08-07T00:46:38.231Z,100178.22
2022-08-07T00:48:09.587Z,100169.88
2022-08-07T00:49:04.269Z,100183.25
2022-08-07T00:50:19.154Z,100176.81
2022-08-07T00:51:58.331Z,100173.19
2022-08-07T00:52:53.599Z,100182.13
2022-08-07T00:53:56.058Z,100190.31
2022-08-07T00:54:58.203Z,100178.06
2022-08-07T00:56:03.992Z,100183.38
2022-08-07T00:57:11.031Z,100177.72
2022-08-07T00:58:14.419Z,100182.13
2022-08-07T00:59:17.666Z,100183.06
2022-08-07T01:00:23.282Z,100177.09
2022-08-07T01:01:26.259Z,100175.22
2022-08-07T01:02:29.806Z,100180.22
2022-08-07T01:03:55.865Z,100180.06
2022-08-07T01:04:54.325Z,100177.06
2022-08-07T01:06:01.526Z,100184.28
2022-08-07T01:07:04.728Z,100173.56
2022-08-07T01:08:09.021Z,100181.03
2022-08-07T01:09:11.721Z,100180.06
2022-08-07T01:10:33.784Z,100176.88
2022-08-07T01:12:23.499Z,100185.03
2022-08-07T01:12:59.892Z,100174.81
2022-08-07T01:14:03.315Z,100181.56
2022-08-07T01:15:11.922Z,100184.88
2022-08-07T01:16:30.478Z,100186.75
2022-08-07T01:17:35.095Z,100187.81
2022-08-07T01:18:38.120Z,100182.47
2022-08-07T01:19:42.032Z,100186.88
2022-08-07T01:21:22.513Z,100188.28
2022-08-07T01:22:29.495Z,100187.63
2022-08-07T01:23:39.473Z,100189.19
2022-08-07T01:24:47.553Z,100188.22
2022-08-07T01:25:55.337Z,100185.56
2022-08-07T01:27:00.119Z,100189.19
2022-08-07T01:28:02.997Z,100190.09
2022-08-07T01:29:06.171Z,100188.66
2022-08-07T01:30:10.894Z,100181.31
2022-08-07T01:31:15.533Z,100184.72
2022-08-07T01:32:22.461Z,100191.31
2022-08-07T01:33:47.656Z,100178.78
2022-08-07T01:34:51.356Z,100189.59
2022-08-07T01:36:06.201Z,100190.84
2022-08-07T01:37:13.783Z,100181.06
2022-08-07T01:38:24.822Z,100189.09
2022-08-07T01:39:40.418Z,100181.88
2022-08-07T01:41:00.854Z,100190.66
2022-08-07T01:42:37.237Z,100179.66
2022-08-07T01:43:26.820Z,100185.00
2022-08-07T01:44:37.524Z,100184.09
2022-08-07T01:45:40.243Z,100182.50
2022-08-07T01:46:49.827Z,100183.13
2022-08-07T01:48:19.445Z,100186.22
2022-08-07T01:49:16.136Z,100184.38
2022-08-07T01:50:29.031Z,100183.75
2022-08-07T01:52:02.603Z,100181.88
2022-08-07T01:52:58.478Z,100181.53
2022-08-07T01:54:12.497Z,100179.66
2022-08-07T01:55:28.814Z,100180.31
2022-08-07T01:56:49.904Z,100182.50
2022-08-07T01:58:05.616Z,100183.47
2022-08-07T01:59:23.331Z,100181.56
2022-08-07T02:00:29.654Z,100178.88
2022-08-07T02:02:01.929Z,100179.94
2022-08-07T02:03:21.274Z,100185.91
2022-08-07T02:04:40.231Z,100183.31
2022-08-07T02:06:08.854Z,100183.00
2022-08-07T02:07:50.036Z,100179.53
2022-08-07T02:09:01.451Z,100174.47
2022-08-07T02:10:08.948Z,100177.44
2022-08-07T02:11:30.797Z,100180.72
2022-08-07T02:12:46.426Z,100181.19
2022-08-07T02:14:02.533Z,100176.94
2022-08-07T02:15:08.824Z,100176.81
2022-08-07T02:16:14.941Z,100172.41
2022-08-07T02:17:27.470Z,100170.69
2022-08-07T02:18:33.995Z,100171.94
2022-08-07T02:20:05.156Z,100165.72
2022-08-07T02:21:08.688Z,100160.38
2022-08-07T02:22:25.955Z,100165.13
2022-08-07T02:23:30.752Z,100168.28
2022-08-07T02:24:39.829Z,100177.00
2022-08-07T02:26:31.474Z,100170.25
2022-08-07T02:27:14.892Z,100163.50
2022-08-07T02:28:25.576Z,100167.44
2022-08-07T02:29:34.540Z,100170.59
2022-08-07T02:30:48.732Z,100174.31
2022-08-07T02:31:54.720Z,100168.50
2022-08-07T02:33:00.678Z,100164.22
2022-08-07T02:34:11.546Z,100159.50
2022-08-07T02:36:29.683Z,100175.69
2022-08-07T02:36:50.539Z,100165.25
2022-08-07T02:37:53.832Z,100163.47
2022-08-07T02:38:59.224Z,100166.81
2022-08-07T02:40:29.979Z,100162.59
2022-08-07T02:41:37.197Z,100163.50
2022-08-07T02:42:42.397Z,100167.97
2022-08-07T02:43:48.843Z,100172.47
2022-08-07T02:44:55.155Z,100174.16
2022-08-07T02:46:07.596Z,100174.22
2022-08-07T02:47:13.265Z,100169.72
2022-08-07T02:48:26.101Z,100168.66
2022-08-07T02:49:58.491Z,100169.84
2022-08-07T02:50:56.218Z,100173.44
2022-08-07T02:52:01.567Z,100164.41
2022-08-07T02:53:10.916Z,100165.06
2022-08-07T02:54:16.932Z,100170.81
2022-08-07T02:55:28.422Z,100165.78
2022-08-07T02:56:48.858Z,100170.19
2022-08-07T02:57:54.793Z,100171.19
2022-08-07T02:59:04.272Z,100173.78
2022-08-07T03:00:11.331Z,100169.88
2022-08-07T03:01:18.888Z,100171.00
2022-08-07T03:02:54.290Z,100182.72
2022-08-07T03:03:58.841Z,100176.59
2022-08-07T03:05:09.844Z,100175.66
2022-08-07T03:06:16.621Z,100180.16
2022-08-07T03:07:43.065Z,100181.66
2022-08-07T03:08:52.518Z,100177.56
2022-08-07T03:09:55.267Z,100180.16
2022-08-07T03:10:58.410Z,100181.84
2022-08-07T03:12:14.219Z,100178.44
2022-08-07T03:13:29.501Z,100175.03
2022-08-07T03:14:52.026Z,100179.31
2022-08-07T03:15:58.377Z,100181.63
2022-08-07T03:17:05.104Z,100174.41
2022-08-07T03:18:08.702Z,100188.16
2022-08-07T03:19:13.699Z,100187.41
2022-08-07T03:20:17.142Z,100181.28
2022-08-07T03:21:20.488Z,100182.56
2022-08-07T03:22:29.625Z,100188.38
2022-08-07T03:24:18.360Z,100175.69
2022-08-07T03:24:57.832Z,100175.63
2022-08-07T03:26:02.025Z,100179.66
2022-08-07T03:27:08.890Z,100185.50
2022-08-07T03:28:38.391Z,100187.94
2022-08-07T03:29:51.452Z,100187.06
2022-08-07T03:31:19.144Z,100181.94
2022-08-07T03:32:37.241Z,100176.16
2022-08-07T03:33:43.567Z,100188.81
2022-08-07T03:35:16.968Z,100177.31
2022-08-07T03:36:14.796Z,100183.28
2022-08-07T03:37:21.535Z,100173.28
2022-08-07T03:38:33.322Z,100181.34
2022-08-07T03:39:56.550Z,100177.03
2022-08-07T03:41:02.489Z,100175.31
2022-08-07T03:42:07.699Z,100181.88
2022-08-07T03:43:14.403Z,100173.91
2022-08-07T03:44:34.199Z,100181.44
2022-08-07T03:45:43.290Z,100173.88
2022-08-07T03:47:13.949Z,100168.91
2022-08-07T03:48:12.449Z,100176.91
2022-08-07T03:49:14.819Z,100175.94
2022-08-07T03:50:22.996Z,100173.34
2022-08-07T03:51:47.117Z,100175.38
2022-08-07T03:52:56.199Z,100176.84
2022-08-07T03:54:32.995Z,100168.00
2022-08-07T03:55:22.565Z,100170.09
2022-08-07T03:56:32.742Z,100167.69
2022-08-07T03:58:34.485Z,100170.63
2022-08-07T03:59:09.551Z,100173.28
2022-08-07T04:00:17.706Z,100176.34
2022-08-07T04:01:28.988Z,100166.09
2022-08-07T04:02:31.407Z,100174.22
2022-08-07T04:03:38.873Z,100171.84
2022-08-07T04:04:52.576Z,100173.19
2022-08-07T04:05:58.829Z,100175.16
2022-08-07T04:07:16.595Z,100170.91
2022-08-07T04:08:22.941Z,100175.28
2022-08-07T04:09:29.446Z,100184.63
2022-08-07T04:10:54.472Z,100179.63
2022-08-07T04:12:26.383Z,100176.00
2022-08-07T04:14:10.952Z,100179.66
2022-08-07T04:14:59.397Z,100181.44
2022-08-07T04:16:04.653Z,100177.06
2022-08-07T04:17:16.496Z,100184.56
2022-08-07T04:18:58.352Z,100184.09
2022-08-07T04:19:52.861Z,100186.75
2022-08-07T04:20:59.153Z,100191.28
2022-08-07T04:22:12.121Z,100188.38
2022-08-07T04:23:19.550Z,100184.63
2022-08-07T04:24:33.882Z,100188.00
2022-08-07T04:25:42.191Z,100183.91
2022-08-07T04:26:47.720Z,100183.75
2022-08-07T04:27:59.382Z,100187.28
2022-08-07T04:29:07.740Z,100190.47
2022-08-07T04:30:21.527Z,100188.38
2022-08-07T04:32:03.061Z,100187.53
2022-08-07T04:33:15.442Z,100188.59
2022-08-07T04:34:24.094Z,100190.09
2022-08-07T04:35:38.425Z,100195.53
2022-08-07T04:36:45.542Z,100192.03
2022-08-07T04:38:03.181Z,100195.09
2022-08-07T04:39:10.570Z,100190.13
2022-08-07T04:40:13.528Z,100194.09
2022-08-07T04:41:19.064Z,100198.03
2022-08-07T04:42:28.934Z,100200.09
2022-08-07T04:44:09.947Z,100205.50
2022-08-07T04:45:03.231Z,100203.59
2022-08-07T04:46:35.837Z,100204.09
2022-08-07T04:47:56.997Z,100198.66
2022-08-07T04:49:18.344Z,100207.50
2022-08-07T04:50:39.619Z,100205.75
2022-08-07T04:52:00.808Z,100206.16
2022-08-07T04:53:39.993Z,100200.75
2022-08-07T04:55:15.273Z,100199.47
2022-08-07T04:58:11.623Z,100206.25
2022-08-07T04:59:17.181Z,100200.00
2022-08-07T05:00:18.674Z,100203.56
2022-08-07T05:01:43.287Z,100198.06
2022-08-07T05:03:17.333Z,100206.22
2022-08-07T05:04:50.216Z,100197.53
2022-08-07T05:06:19.879Z,100211.94
2022-08-07T05:07:48.638Z,100206.97
2022-08-07T05:09:01.425Z,100203.13
2022-08-07T05:10:16.805Z,100219.00
2022-08-07T05:11:56.914Z,100205.88
2022-08-07T05:14:44.806Z,100202.75
2022-08-07T05:14:52.324Z,100197.69
2022-08-07T05:16:00.027Z,100197.31
2022-08-07T05:17:11.858Z,100199.84
2022-08-07T05:18:21.075Z,100205.41
2022-08-07T05:19:44.024Z,100199.22
2022-08-07T05:20:52.015Z,100203.50
2022-08-07T05:22:01.772Z,100201.56
2022-08-07T05:23:20.587Z,100202.25
2022-08-07T05:24:40.301Z,100200.75
2022-08-07T05:26:11.523Z,100205.66
2022-08-07T05:28:02.108Z,100205.94
2022-08-07T05:28:40.569Z,100214.56
2022-08-07T05:29:50.999Z,100207.97
2022-08-07T05:30:57.375Z,100203.91
2022-08-07T05:32:02.490Z,100204.22
2022-08-07T05:33:09.860Z,100205.97
2022-08-07T05:34:15.733Z,100206.22
2022-08-07T05:35:33.054Z,100209.09
2022-08-07T05:36:39.624Z,100206.69
2022-08-07T05:38:08.876Z,100209.16
2022-08-07T05:40:05.914Z,100211.41
2022-08-07T05:40:50.675Z,100208.97
2022-08-07T05:42:01.175Z,100206.09
2022-08-07T05:43:06.705Z,100208.00
2022-08-07T05:44:14.281Z,100206.72
2022-08-07T05:45:46.056Z,100203.03
2022-08-07T05:46:51.227Z,100210.00
2022-08-07T05:48:02.454Z,100212.34
2022-08-07T05:49:14.474Z,100206.84
2022-08-07T05:50:24.250Z,100209.03
2022-08-07T05:51:31.820Z,100209.75
2022-08-07T05:52:35.968Z,100211.38
2022-08-07T05:54:09.649Z,100214.84
2022-08-07T05:55:10.358Z,100221.44
2022-08-07T05:56:20.093Z,100213.81
2022-08-07T05:57:37.735Z,100217.06
2022-08-07T05:58:52.386Z,100214.56
2022-08-07T06:00:01.314Z,100217.53
2022-08-07T06:01:16.946Z,100215.16
2022-08-07T06:02:30.504Z,100218.59
2022-08-07T06:03:57.317Z,100214.91
2022-08-07T06:05:06.201Z,100216.91
2022-08-07T06:06:09.923Z,100208.88
2022-08-07T06:07:23.150Z,100209.88
2022-08-07T06:08:44.415Z,100211.09
2022-08-07T06:10:05.579Z,100210.03
2022-08-07T06:11:09.415Z,100206.22
2022-08-07T06:12:12.500Z,100198.88
2022-08-07T06:13:18.414Z,100203.47
2022-08-07T06:14:28.804Z,100208.66
2022-08-07T06:15:38.558Z,100203.44
2022-08-07T06:16:50.401Z,100212.66
2022-08-07T06:18:02.163Z,100204.91
2022-08-07T06:19:06.625Z,100205.63
2022-08-07T06:20:25.485Z,100206.38
2022-08-07T06:22:16.272Z,100195.91
2022-08-07T06:23:25.227Z,100203.34
2022-08-07T06:24:52.379Z,100197.72
2022-08-07T06:25:54.470Z,100200.44
2022-08-07T06:27:03.510Z,100205.13
2022-08-07T06:28:14.805Z,100214.84
2022-08-07T06:29:17.165Z,100211.94
2022-08-07T06:30:24.220Z,100212.22
2022-08-07T06:31:49.680Z,100210.28
2022-08-07T06:32:56.634Z,100210.47
2022-08-07T06:33:59.783Z,100204.66
2022-08-07T06:35:10.501Z,100210.97
2022-08-07T06:36:34.914Z,100196.56
2022-08-07T06:37:44.106Z,100195.00
2022-08-07T06:38:58.862Z,100197.53
2022-08-07T06:40:16.869Z,100202.75
2022-08-07T06:42:01.510Z,100206.38
2022-08-07T06:43:26.750Z,100206.06
2022-08-07T06:44:44.704Z,100202.72
2022-08-07T06:45:58.582Z,100202.78
2022-08-07T06:47:10.402Z,100201.53
2022-08-07T06:48:15.288Z,100204.28
2022-08-07T06:49:20.834Z,100207.94
2022-08-07T06:50:23.067Z,100197.72
2022-08-07T06:51:33.254Z,100203.88
2022-08-07T06:52:45.163Z,100206.75
2022-08-07T06:55:27.736Z,100209.41
2022-08-07T06:55:31.492Z,100204.69
2022-08-07T06:56:49.703Z,100202.72
2022-08-07T06:58:02.700Z,100207.75
2022-08-07T07:00:13.923Z,100209.91
2022-08-07T07:00:44.996Z,100214.84
2022-08-07T07:01:53.844Z,100211.16
2022-08-07T07:03:08.449Z,100211.09
2022-08-07T07:04:32.747Z,100204.63
2022-08-07T07:06:03.376Z,100211.59
2022-08-07T07:07:01.299Z,100205.69
2022-08-07T07:08:06.565Z,100214.03
2022-08-07T07:09:25.206Z,100206.91
2022-08-07T07:10:35.211Z,100200.81
2022-08-07T07:12:08.478Z,100203.84
2022-08-07T07:13:16.762Z,100195.84
2022-08-07T07:14:56.546Z,100194.59
2022-08-07T07:16:07.547Z,100202.13
2022-08-07T07:17:16.332Z,100203.53
2022-08-07T07:18:37.683Z,100204.69
2022-08-07T07:19:58.356Z,100201.44
2022-08-07T07:21:13.786Z,100211.66
2022-08-07T07:22:36.909Z,100214.41
2022-08-07T07:24:10.105Z,100216.09
2022-08-07T07:26:33.330Z,100215.22
2022-08-07T07:26:38.123Z,100211.63
2022-08-07T07:27:56.240Z,100221.63
2022-08-07T07:29:39.780Z,100203.88
2022-08-07T07:30:41.005Z,100213.81
2022-08-07T07:31:49.533Z,100214.13
2022-08-07T07:32:52.279Z,100209.88
2022-08-07T07:34:03.679Z,100214.19
2022-08-07T07:35:08.912Z,100207.50
2022-08-07T07:36:12.738Z,100209.31
2022-08-07T07:37:21.720Z,100212.44
2022-08-07T07:38:40.893Z,100206.03
2022-08-07T07:39:54.370Z,100204.81
2022-08-07T07:41:02.414Z,100204.84
2022-08-07T07:42:13.760Z,100202.00
2022-08-07T07:43:47.476Z,100207.31
2022-08-07T07:44:49.676Z,100195.25
2022-08-07T07:46:40.125Z,100198.50
2022-08-07T07:47:23.874Z,100192.91
2022-08-07T07:48:36.105Z,100191.78
2022-08-07T07:50:33.065Z,100193.41
2022-08-07T07:51:02.894Z,100195.00
2022-08-07T07:52:13.223Z,100197.44
2022-08-07T07:53:25.579Z,100194.00
2022-08-07T07:54:29.750Z,100184.41
2022-08-07T07:55:37.630Z,100178.75
2022-08-07T07:56:52.660Z,100189.25
2022-08-07T07:57:58.446Z,100190.44
2022-08-07T07:59:08.284Z,100185.97
2022-08-07T08:00:21.122Z,100191.44
2022-08-07T08:02:05.084Z,100188.41
2022-08-07T08:03:04.828Z,100185.81
2022-08-07T08:04:11.959Z,100184.25
2022-08-07T08:05:18.212Z,100185.22
2022-08-07T08:06:26.909Z,100176.19
2022-08-07T08:07:35.681Z,100174.44
2022-08-07T08:08:48.192Z,100181.28
2022-08-07T08:10:05.538Z,100185.34
2022-08-07T08:11:16.309Z,100182.75
2022-08-07T08:12:51.198Z,100179.31
2022-08-07T08:13:53.760Z,100185.59
2022-08-07T08:14:58.114Z,100176.75
2022-08-07T08:16:03.029Z,100178.34
2022-08-07T08:17:55.468Z,100175.53
2022-08-07T08:18:32.104Z,100174.41
2022-08-07T08:20:17.251Z,100176.88
2022-08-07T08:21:02.122Z,100172.22
2022-08-07T08:22:32.664Z,100172.28
2022-08-07T08:23:55.079Z,100172.38
2022-08-07T08:25:41.943Z,100155.84
2022-08-07T08:27:05.910Z,100159.75
2022-08-07T08:28:24.133Z,100153.53
2022-08-07T08:29:55.512Z,100162.50
2022-08-07T08:31:03.059Z,100160.16
2022-08-07T08:32:18.672Z,100175.66
2022-08-07T08:33:33.370Z,100159.16
2022-08-07T08:34:38.148Z,100160.69
2022-08-07T08:35:47.238Z,100152.28
2022-08-07T08:36:57.607Z,100152.44
2022-08-07T08:38:04.848Z,100152.53
2022-08-07T08:39:09.553Z,100153.13
2022-08-07T08:40:29.910Z,100151.59
2022-08-07T08:41:57.556Z,100149.19
2022-08-07T08:43:07.282Z,100150.53
2022-08-07T08:44:29.695Z,100146.63
2022-08-07T08:45:59.066Z,100141.88
2022-08-07T08:47:10.052Z,100149.13
2022-08-07T08:48:32.589Z,100147.91
2022-08-07T08:50:02.413Z,100147.44
2022-08-07T08:52:01.099Z,100140.28
2022-08-07T08:53:22.895Z,100128.16
2022-08-07T08:54:38.666Z,100133.63
2022-08-07T08:55:59.460Z,100140.34
2022-08-07T08:57:07.421Z,100138.41
2022-08-07T08:58:15.687Z,100132.28
2022-08-07T08:59:59.129Z,100132.53
2022-08-07T09:01:15.361Z,100137.28
2022-08-07T09:02:37.968Z,100133.44
2022-08-07T09:03:55.221Z,100136.88
2022-08-07T09:05:06.428Z,100144.44
2022-08-07T09:06:18.568Z,100139.00
2022-08-07T09:07:57.993Z,100138.97
2022-08-07T09:09:21.152Z,100137.31
2022-08-07T09:10:32.982Z,100139.16
2022-08-07T09:11:56.726Z,100140.31
2022-08-07T09:13:20.276Z,100141.47
2022-08-07T09:14:50.693Z,100146.81
2022-08-07T09:16:23.252Z,100146.88
2022-08-07T09:17:59.698Z,100131.97
2022-08-07T09:19:44.806Z,100128.47
2022-08-07T09:21:34.470Z,100128.44
2022-08-07T09:24:32.117Z,100132.69
2022-08-07T09:24:58.632Z,100125.56
2022-08-07T09:26:20.656Z,100132.94
2022-08-07T09:27:38.396Z,100130.22
2022-08-07T09:30:00.678Z,100132.16
2022-08-07T09:30:47.631Z,100132.13
2022-08-07T09:32:02.405Z,100129.13
2022-08-07T09:33:16.624Z,100122.88
2022-08-07T09:34:58.004Z,100108.59
2022-08-07T09:36:16.011Z,100105.38
2022-08-07T09:37:33.402Z,100102.59
2022-08-07T09:39:11.296Z,100110.56
2022-08-07T09:40:30.348Z,100105.91
2022-08-07T09:41:43.531Z,100106.91
2022-08-07T09:43:18.941Z,100088.94
2022-08-07T09:47:27.299Z,100089.47
2022-08-07T09:47:52.191Z,100095.00
2022-08-07T09:48:12.309Z,100104.00
2022-08-07T09:50:00.852Z,100101.91
2022-08-07T09:52:16.638Z,100110.56
2022-08-07T09:53:01.760Z,100120.53
2022-08-07T09:54:16.448Z,100121.16
2022-08-07T09:55:29.265Z,100121.56
2022-08-07T09:56:44.154Z,100126.97
2022-08-07T09:58:00.434Z,100127.50
2022-08-07T09:59:46.109Z,100097.03
2022-08-07T10:01:51.596Z,100091.63
2022-08-07T10:04:05.252Z,100093.78
2022-08-07T10:05:18.782Z,100082.03
2022-08-07T10:06:56.963Z,100086.22
2022-08-07T10:08:29.061Z,100093.91
2022-08-07T10:10:00.375Z,100100.72
2022-08-07T10:11:16.573Z,100115.34
2022-08-07T10:12:52.557Z,100147.19
2022-08-07T10:14:13.990Z,100144.00
2022-08-07T10:15:44.538Z,100091.88
2022-08-07T10:17:20.425Z,100086.88
2022-08-07T10:18:59.565Z,100079.81
2022-08-07T10:20:30.332Z,100075.19
2022-08-07T10:22:24.867Z,100073.28
2022-08-07T10:24:06.964Z,100088.72
2022-08-07T10:25:43.267Z,100074.75
2022-08-07T10:27:24.726Z,100087.06
2022-08-07T10:28:56.246Z,100088.69
2022-08-07T10:30:13.540Z,100087.28
2022-08-07T10:31:57.667Z,100081.63
2022-08-07T10:33:23.601Z,100093.13
2022-08-07T10:35:20.488Z,100074.56
2022-08-07T10:36:56.855Z,100075.84
2022-08-07T10:38:34.944Z,100072.94
2022-08-07T10:40:05.661Z,100069.66
2022-08-07T10:41:51.790Z,100077.41
2022-08-07T10:42:44.993Z,100061.72
2022-08-07T10:44:28.813Z,100068.22
2022-08-07T10:45:57.968Z,100061.56
2022-08-07T10:47:51.440Z,100066.00
2022-08-07T10:48:55.804Z,100056.34
2022-08-07T10:50:09.075Z,100069.94
2022-08-07T10:51:39.071Z,100060.34
2022-08-07T10:53:21.630Z,100061.09
2022-08-07T10:55:01.370Z,100062.94
2022-08-07T10:56:33.567Z,100063.19
2022-08-07T10:57:39.901Z,100051.72
2022-08-07T10:59:07.632Z,100061.31
2022-08-07T11:00:36.936Z,100060.22
2022-08-07T11:02:27.226Z,100061.50
2022-08-07T11:03:52.642Z,100044.31
2022-08-07T11:05:10.732Z,100047.03
2022-08-07T11:06:29.795Z,100040.25
2022-08-07T11:08:12.982Z,100039.56
2022-08-07T11:10:07.747Z,100038.19
2022-08-07T11:11:06.171Z,100038.09
2022-08-07T11:12:32.234Z,100027.88
2022-08-07T11:14:44.810Z,100041.94
2022-08-07T11:15:18.074Z,100030.06
2022-08-07T11:16:32.121Z,100031.84
2022-08-07T11:18:03.702Z,100030.97
2022-08-07T11:19:27.238Z,100036.28
2022-08-07T11:21:14.121Z,100032.00
2022-08-07T11:22:43.932Z,100035.88
2022-08-07T11:24:20.900Z,100039.69
2022-08-07T11:25:42.467Z,100023.28
2022-08-07T11:27:07.597Z,100027.66
2022-08-07T11:28:30.205Z,100029.66
2022-08-07T11:30:10.031Z,100030.81
2022-08-07T11:31:27.278Z,100025.63
2022-08-07T11:32:41.123Z,100023.44
2022-08-07T11:34:01.226Z,100041.91
2022-08-07T11:35:26.757Z,100027.16
2022-08-07T11:36:52.444Z,100031.13
2022-08-07T11:38:18.075Z,100023.78
2022-08-07T11:40:00.504Z,100023.78
2022-08-07T11:41:22.263Z,100026.94
2022-08-07T11:42:55.220Z,100033.50
2022-08-07T11:44:18.996Z,100025.88
2022-08-07T11:45:53.953Z,100025.16
2022-08-07T11:47:01.966Z,100035.78
2022-08-07T11:48:29.762Z,100034.78
2022-08-07T11:50:31.610Z,100044.09
2022-08-07T11:51:48.380Z,100038.19
2022-08-07T11:53:25.414Z,100033.50
2022-08-07T11:54:58.757Z,100033.84
2022-08-07T11:56:26.965Z,100039.78
2022-08-07T11:58:00.043Z,100032.44
2022-08-07T12:00:09.999Z,100043.13
2022-08-07T12:01:20.150Z,100034.81
2022-08-07T12:02:52.522Z,100041.56
2022-08-07T12:04:07.628Z,100039.47
2022-08-07T12:05:28.767Z,100057.72
2022-08-07T12:07:01.105Z,100061.69
2022-08-07T12:08:31.438Z,100055.63
2022-08-07T12:10:15.009Z,100053.59
2022-08-07T12:11:23.943Z,100055.84
2022-08-07T12:12:42.989Z,100057.69
2022-08-07T12:14:18.997Z,100066.03
2022-08-07T12:15:35.896Z,100065.00
2022-08-07T12:17:20.413Z,100062.09
2022-08-07T12:18:38.563Z,100069.44
2022-08-07T12:20:02.753Z,100065.53
2022-08-07T12:21:56.005Z,100072.28
2022-08-07T12:23:14.726Z,100081.91
2022-08-07T12:24:40.169Z,100073.72
2022-08-07T12:26:22.811Z,100080.50
2022-08-07T12:27:28.095Z,100087.50
2022-08-07T12:29:03.947Z,100084.00
2022-08-07T12:30:09.202Z,100087.22
2022-08-07T12:31:23.584Z,100095.63
2022-08-07T12:32:38.300Z,100087.28
2022-08-07T12:34:01.153Z,100089.19
2022-08-07T12:35:08.345Z,100086.97
2022-08-07T12:36:11.885Z,100087.16
2022-08-07T12:37:23.558Z,100095.53
2022-08-07T12:38:42.629Z,100097.44
2022-08-07T12:39:50.851Z,100084.88
2022-08-07T12:40:56.139Z,100093.75
2022-08-07T12:42:02.546Z,100090.75
2022-08-07T12:43:09.268Z,100094.50
2022-08-07T12:44:17.097Z,100094.59
2022-08-07T12:45:27.214Z,100107.72
2022-08-07T12:46:51.976Z,100107.72
2022-08-07T12:48:27.712Z,100127.94
2022-08-07T12:50:33.713Z,100121.72
2022-08-07T12:52:13.785Z,100133.56
2022-08-07T12:53:22.129Z,100136.50
2022-08-07T12:54:38.170Z,100149.53
2022-08-07T12:56:03.311Z,100150.91
2022-08-07T12:57:10.112Z,100165.56
2022-08-07T12:58:16.407Z,100161.34
2022-08-07T12:59:22.589Z,100158.94
2022-08-07T13:00:54.346Z,100148.97
2022-08-07T13:02:11.476Z,100158.44
2022-08-07T13:03:59.123Z,100147.56
2022-08-07T13:05:01.567Z,100147.13
2022-08-07T13:06:27.045Z,100149.03
2022-08-07T13:08:12.215Z,100153.44
2022-08-07T13:10:28.283Z,100156.97
2022-08-07T13:12:02.476Z,100156.72
2022-08-07T13:13:48.874Z,100164.78
2022-08-07T13:15:08.060Z,100168.63
2022-08-07T13:16:19.032Z,100174.28
2022-08-07T13:17:49.745Z,100170.41
2022-08-07T13:19:18.069Z,100175.94
2022-08-07T13:20:35.417Z,100174.94
2022-08-07T13:21:57.463Z,100181.78
2022-08-07T13:24:01.057Z,100172.78
2022-08-07T13:24:57.065Z,100165.25
2022-08-07T13:26:15.987Z,100169.56
2022-08-07T13:28:11.390Z,100171.78
2022-08-07T13:29:27.394Z,100190.41
2022-08-07T13:30:43.966Z,100194.72
2022-08-07T13:32:31.611Z,100206.38
2022-08-07T13:34:33.141Z,100196.47
2022-08-07T13:36:00.403Z,100195.31
2022-08-07T13:37:42.131Z,100200.00
2022-08-07T13:38:54.361Z,100203.25
2022-08-07T13:40:35.676Z,100208.44
2022-08-07T13:41:50.804Z,100199.69
2022-08-07T13:43:01.722Z,100207.44
2022-08-07T13:44:10.394Z,100205.41
2022-08-07T13:46:21.529Z,100199.81
2022-08-07T13:46:49.482Z,100200.75
2022-08-07T13:48:06.033Z,100193.59
2022-08-07T13:50:35.276Z,100198.78
2022-08-07T13:50:44.213Z,100202.25
2022-08-07T13:52:04.694Z,100192.84
2022-08-07T13:54:01.000Z,100198.69
2022-08-07T13:54:57.588Z,100186.84
2022-08-07T13:56:00.251Z,100188.75
2022-08-07T13:57:14.460Z,100197.69
2022-08-07T13:58:37.262Z,100201.94
2022-08-07T13:59:54.907Z,100210.66
2022-08-07T14:01:00.096Z,100208.69
2022-08-07T14:02:19.519Z,100206.06
2022-08-07T14:04:05.562Z,100203.22
2022-08-07T14:05:06.564Z,100200.00
2022-08-07T14:06:13.720Z,100193.03
2022-08-07T14:07:22.924Z,100198.44
2022-08-07T14:08:28.139Z,100189.13
2022-08-07T14:10:01.325Z,100183.94
2022-08-07T14:11:14.648Z,100181.97
2022-08-07T14:12:49.434Z,100195.59
2022-08-07T14:14:06.966Z,100198.53
2022-08-07T14:15:18.666Z,100206.47
2022-08-07T14:16:31.168Z,100204.28
2022-08-07T14:18:15.989Z,100201.94
2022-08-07T14:19:03.239Z,100197.84
2022-08-07T14:20:39.812Z,100211.84
2022-08-07T14:22:04.008Z,100202.00
2022-08-07T14:23:31.749Z,100197.13
2022-08-07T14:25:02.004Z,100203.06
2022-08-07T14:26:28.195Z,100197.75
2022-08-07T14:28:12.452Z,100198.19
2022-08-07T14:30:04.955Z,100204.63
2022-08-07T14:30:52.047Z,100203.31
2022-08-07T14:32:03.545Z,100206.34
2022-08-07T14:33:08.387Z,100203.31
2022-08-07T14:34:20.281Z,100204.09
2022-08-07T14:35:43.037Z,100210.63
2022-08-07T14:36:56.437Z,100204.53
2022-08-07T14:38:05.910Z,100207.47
2022-08-07T14:40:18.192Z,100210.13
2022-08-07T14:40:43.009Z,100215.75
2022-08-07T14:42:19.524Z,100210.38
2022-08-07T14:45:21.625Z,100204.16
2022-08-07T14:46:31.169Z,100208.16
2022-08-07T14:47:35.016Z,100201.69
2022-08-07T14:48:40.835Z,100208.31
2022-08-07T14:51:22.493Z,100210.63
2022-08-07T14:52:28.848Z,100207.41